sensor_id;sensor_type;location;lat;lon;timestamp;temperature;humidity
7622;DHT22;3852;52.284;8.032;2022-10-31T00:00:47;14.30;99.90
7622;DHT22;3852;52.284;8.032;2022-10-31T00:03:13;14.20;99.90
7622;DHT22;3852;52.284;8.032;2022-10-31T00:05:47;14.10;99.90
7622;DHT22;3852;52.284;8.032;2022-10-31T00:08:14;14.20;99.90
7622;DHT22;3852;52.284;8.032;2022-10-31T00:10:43;14.10;99.90
7622;DHT22;3852;52.284;8.032;2022-10-31T00:13:10;14.10;99.90
7622;DHT22;3852;52.284;8.032;2022-10-31T00:15:38;14.10;99.90
7622;DHT22;3852;52.284;8.032;2022-10-31T00:18:06;14.00;99.90
7622;DHT22;3852;52.284;8.032;2022-10-31T00:20:33;14.00;99.90
7622;DHT22;3852;52.284;8.032;2022-10-31T00:23:00;14.00;99.90
7622;DHT22;3852;52.284;8.032;2022-10-31T00:25:28;13.90;99.90
7622;DHT22;3852;52.284;8.032;2022-10-31T00:27:57;14.00;99.90
7622;DHT22;3852;52.284;8.032;2022-10-31T00:30:23;14.00;99.90
7622;DHT22;3852;52.284;8.032;2022-10-31T00:32:49;13.90;99.90
7622;DHT22;3852;52.284;8.032;2022-10-31T00:35:15;13.90;99.90
7622;DHT22;3852;52.284;8.032;2022-10-31T00:37:43;13.90;99.90
7622;DHT22;3852;52.284;8.032;2022-10-31T00:40:09;13.90;99.90
7622;DHT22;3852;52.284;8.032;2022-10-31T00:42:36;13.80;99.90
7622;DHT22;3852;52.284;8.032;2022-10-31T00:45:04;13.80;99.90
7622;DHT22;3852;52.284;8.032;2022-10-31T00:47:30;13.80;99.90
7622;DHT22;3852;52.284;8.032;2022-10-31T00:49:56;13.90;99.90
7622;DHT22;3852;52.284;8.032;2022-10-31T00:52:22;13.90;99.90
7622;DHT22;3852;52.284;8.032;2022-10-31T00:54:47;13.90;99.90
7622;DHT22;3852;52.284;8.032;2022-10-31T00:57:13;13.80;99.90
7622;DHT22;3852;52.284;8.032;2022-10-31T00:59:39;13.70;99.90
7622;DHT22;3852;52.284;8.032;2022-10-31T01:02:05;13.70;99.90
7622;DHT22;3852;52.284;8.032;2022-10-31T01:04:30;13.70;99.90
7622;DHT22;3852;52.284;8.032;2022-10-31T01:06:56;13.70;99.90
7622;DHT22;3852;52.284;8.032;2022-10-31T01:09:23;13.60;99.90
7622;DHT22;3852;52.284;8.032;2022-10-31T01:11:49;13.60;99.90
7622;DHT22;3852;52.284;8.032;2022-10-31T01:14:14;13.50;99.90
7622;DHT22;3852;52.284;8.032;2022-10-31T01:16:40;13.50;99.90
7622;DHT22;3852;52.284;8.032;2022-10-31T01:19:08;13.50;99.90
7622;DHT22;3852;52.284;8.032;2022-10-31T01:21:34;13.40;99.90
7622;DHT22;3852;52.284;8.032;2022-10-31T01:24:00;13.40;99.90
7622;DHT22;3852;52.284;8.032;2022-10-31T01:26:31;13.40;99.90
7622;DHT22;3852;52.284;8.032;2022-10-31T01:29:04;13.40;99.90
7622;DHT22;3852;52.284;8.032;2022-10-31T01:31:33;13.30;99.90
7622;DHT22;3852;52.284;8.032;2022-10-31T01:34:00;13.30;99.90
7622;DHT22;3852;52.284;8.032;2022-10-31T01:36:32;13.30;99.90
7622;DHT22;3852;52.284;8.032;2022-10-31T01:39:01;13.30;99.90
7622;DHT22;3852;52.284;8.032;2022-10-31T01:41:35;13.30;99.90
7622;DHT22;3852;52.284;8.032;2022-10-31T01:47:14;13.30;99.90
7622;DHT22;3852;52.284;8.032;2022-10-31T01:49:46;13.30;99.90
7622;DHT22;3852;52.284;8.032;2022-10-31T01:52:36;13.30;99.90
7622;DHT22;3852;52.284;8.032;2022-10-31T01:55:20;13.30;99.90
7622;DHT22;3852;52.284;8.032;2022-10-31T01:57:51;13.40;99.90
7622;DHT22;3852;52.284;8.032;2022-10-31T02:00:20;13.30;99.90
7622;DHT22;3852;52.284;8.032;2022-10-31T02:02:46;13.20;99.90
7622;DHT22;3852;52.284;8.032;2022-10-31T02:05:17;13.20;99.90
7622;DHT22;3852;52.284;8.032;2022-10-31T02:10:43;13.10;99.90
7622;DHT22;3852;52.284;8.032;2022-10-31T02:13:10;13.10;99.90
7622;DHT22;3852;52.284;8.032;2022-10-31T02:15:38;13.10;99.90
7622;DHT22;3852;52.284;8.032;2022-10-31T02:18:05;13.00;99.90
7622;DHT22;3852;52.284;8.032;2022-10-31T02:20:42;13.00;99.90
7622;DHT22;3852;52.284;8.032;2022-10-31T02:26:28;12.80;99.90
7622;DHT22;3852;52.284;8.032;2022-10-31T02:29:43;12.80;99.90
7622;DHT22;3852;52.284;8.032;2022-10-31T02:35:13;12.80;99.90
7622;DHT22;3852;52.284;8.032;2022-10-31T02:38:05;12.80;99.90
7622;DHT22;3852;52.284;8.032;2022-10-31T02:41:00;12.70;99.90
7622;DHT22;3852;52.284;8.032;2022-10-31T02:50:02;12.60;99.90
7622;DHT22;3852;52.284;8.032;2022-10-31T02:52:33;12.50;99.90
7622;DHT22;3852;52.284;8.032;2022-10-31T02:55:39;12.50;99.90
7622;DHT22;3852;52.284;8.032;2022-10-31T03:01:01;12.50;99.90
7622;DHT22;3852;52.284;8.032;2022-10-31T03:04:02;12.50;99.90
7622;DHT22;3852;52.284;8.032;2022-10-31T03:07:14;12.50;99.90
7622;DHT22;3852;52.284;8.032;2022-10-31T03:13:20;12.40;99.90
7622;DHT22;3852;52.284;8.032;2022-10-31T03:15:51;12.40;99.90
7622;DHT22;3852;52.284;8.032;2022-10-31T03:18:28;12.40;99.90
7622;DHT22;3852;52.284;8.032;2022-10-31T03:21:04;12.40;99.90
7622;DHT22;3852;52.284;8.032;2022-10-31T03:23:35;12.40;99.90
7622;DHT22;3852;52.284;8.032;2022-10-31T03:26:06;12.40;99.90
7622;DHT22;3852;52.284;8.032;2022-10-31T03:28:43;12.40;99.90
7622;DHT22;3852;52.284;8.032;2022-10-31T03:31:13;12.40;99.90
7622;DHT22;3852;52.284;8.032;2022-10-31T03:33:42;12.30;99.90
7622;DHT22;3852;52.284;8.032;2022-10-31T03:36:11;12.30;99.90
7622;DHT22;3852;52.284;8.032;2022-10-31T03:38:38;12.30;99.90
7622;DHT22;3852;52.284;8.032;2022-10-31T03:41:05;12.30;99.90
7622;DHT22;3852;52.284;8.032;2022-10-31T03:43:41;12.30;99.90
7622;DHT22;3852;52.284;8.032;2022-10-31T03:46:12;12.20;99.90
7622;DHT22;3852;52.284;8.032;2022-10-31T03:48:38;12.20;99.90
7622;DHT22;3852;52.284;8.032;2022-10-31T03:51:16;12.20;99.90
7622;DHT22;3852;52.284;8.032;2022-10-31T03:54:04;12.10;99.90
7622;DHT22;3852;52.284;8.032;2022-10-31T03:56:36;12.10;99.90
7622;DHT22;3852;52.284;8.032;2022-10-31T03:59:07;12.10;99.90
7622;DHT22;3852;52.284;8.032;2022-10-31T04:01:49;12.10;99.90
7622;DHT22;3852;52.284;8.032;2022-10-31T04:04:19;12.10;99.90
7622;DHT22;3852;52.284;8.032;2022-10-31T04:06:46;12.00;99.90
7622;DHT22;3852;52.284;8.032;2022-10-31T04:09:13;12.10;99.90
7622;DHT22;3852;52.284;8.032;2022-10-31T04:11:51;12.00;99.90
7622;DHT22;3852;52.284;8.032;2022-10-31T04:14:18;12.00;99.90
7622;DHT22;3852;52.284;8.032;2022-10-31T04:16:45;11.90;99.90
7622;DHT22;3852;52.284;8.032;2022-10-31T04:19:12;11.90;99.90
7622;DHT22;3852;52.284;8.032;2022-10-31T04:21:38;11.80;99.90
7622;DHT22;3852;52.284;8.032;2022-10-31T04:24:04;11.70;99.90
7622;DHT22;3852;52.284;8.032;2022-10-31T04:26:30;11.70;99.90
7622;DHT22;3852;52.284;8.032;2022-10-31T04:28:56;11.70;99.90
7622;DHT22;3852;52.284;8.032;2022-10-31T04:31:21;11.70;99.90
7622;DHT22;3852;52.284;8.032;2022-10-31T04:33:47;11.60;99.90
7622;DHT22;3852;52.284;8.032;2022-10-31T04:36:13;11.70;99.90
7622;DHT22;3852;52.284;8.032;2022-10-31T04:38:39;11.70;99.90
7622;DHT22;3852;52.284;8.032;2022-10-31T04:41:04;11.70;99.90
7622;DHT22;3852;52.284;8.032;2022-10-31T04:43:30;11.70;99.90
7622;DHT22;3852;52.284;8.032;2022-10-31T04:45:56;11.70;99.90
7622;DHT22;3852;52.284;8.032;2022-10-31T04:48:22;11.70;99.90
7622;DHT22;3852;52.284;8.032;2022-10-31T04:50:47;11.70;99.90
7622;DHT22;3852;52.284;8.032;2022-10-31T04:53:13;11.60;99.90
7622;DHT22;3852;52.284;8.032;2022-10-31T04:55:39;11.60;99.90
7622;DHT22;3852;52.284;8.032;2022-10-31T04:58:05;11.60;99.90
7622;DHT22;3852;52.284;8.032;2022-10-31T05:00:30;11.50;99.90
7622;DHT22;3852;52.284;8.032;2022-10-31T05:02:57;11.50;99.90
7622;DHT22;3852;52.284;8.032;2022-10-31T05:05:26;11.50;99.90
7622;DHT22;3852;52.284;8.032;2022-10-31T05:07:55;11.40;99.90
7622;DHT22;3852;52.284;8.032;2022-10-31T05:10:23;11.40;99.90
7622;DHT22;3852;52.284;8.032;2022-10-31T05:12:56;11.40;99.90
7622;DHT22;3852;52.284;8.032;2022-10-31T05:15:25;11.40;99.90
7622;DHT22;3852;52.284;8.032;2022-10-31T05:17:52;11.50;99.90
7622;DHT22;3852;52.284;8.032;2022-10-31T05:20:20;11.40;99.90
7622;DHT22;3852;52.284;8.032;2022-10-31T05:22:49;11.40;99.90
7622;DHT22;3852;52.284;8.032;2022-10-31T05:25:16;11.40;99.90
7622;DHT22;3852;52.284;8.032;2022-10-31T05:27:44;11.30;99.90
7622;DHT22;3852;52.284;8.032;2022-10-31T05:30:14;11.30;99.90
7622;DHT22;3852;52.284;8.032;2022-10-31T05:32:43;11.20;99.90
7622;DHT22;3852;52.284;8.032;2022-10-31T05:35:12;11.20;99.90
7622;DHT22;3852;52.284;8.032;2022-10-31T05:37:40;11.20;99.90
7622;DHT22;3852;52.284;8.032;2022-10-31T05:40:07;11.20;99.90
7622;DHT22;3852;52.284;8.032;2022-10-31T05:42:34;11.10;99.90
7622;DHT22;3852;52.284;8.032;2022-10-31T05:45:00;11.10;99.90
7622;DHT22;3852;52.284;8.032;2022-10-31T05:47:26;11.20;99.90
7622;DHT22;3852;52.284;8.032;2022-10-31T05:49:52;11.10;99.90
7622;DHT22;3852;52.284;8.032;2022-10-31T05:52:18;11.10;99.90
7622;DHT22;3852;52.284;8.032;2022-10-31T05:54:44;11.20;99.90
7622;DHT22;3852;52.284;8.032;2022-10-31T05:57:10;11.20;99.90
7622;DHT22;3852;52.284;8.032;2022-10-31T05:59:36;11.20;99.90
7622;DHT22;3852;52.284;8.032;2022-10-31T06:02:02;11.20;99.90
7622;DHT22;3852;52.284;8.032;2022-10-31T06:04:27;11.20;99.90
7622;DHT22;3852;52.284;8.032;2022-10-31T06:06:53;11.20;99.90
7622;DHT22;3852;52.284;8.032;2022-10-31T06:09:19;11.30;99.90
7622;DHT22;3852;52.284;8.032;2022-10-31T06:11:45;11.30;99.90
7622;DHT22;3852;52.284;8.032;2022-10-31T06:14:10;11.30;99.90
7622;DHT22;3852;52.284;8.032;2022-10-31T06:16:36;11.30;99.90
7622;DHT22;3852;52.284;8.032;2022-10-31T06:19:02;11.20;99.90
7622;DHT22;3852;52.284;8.032;2022-10-31T06:21:28;11.30;99.90
7622;DHT22;3852;52.284;8.032;2022-10-31T06:23:54;11.40;99.90
7622;DHT22;3852;52.284;8.032;2022-10-31T06:26:19;11.30;99.90
7622;DHT22;3852;52.284;8.032;2022-10-31T06:28:45;11.40;99.90
7622;DHT22;3852;52.284;8.032;2022-10-31T06:31:11;11.40;99.90
7622;DHT22;3852;52.284;8.032;2022-10-31T06:33:36;11.30;99.90
7622;DHT22;3852;52.284;8.032;2022-10-31T06:36:03;11.30;99.90
7622;DHT22;3852;52.284;8.032;2022-10-31T06:38:29;11.30;99.90
7622;DHT22;3852;52.284;8.032;2022-10-31T06:40:55;11.40;99.90
7622;DHT22;3852;52.284;8.032;2022-10-31T06:43:21;11.50;99.90
7622;DHT22;3852;52.284;8.032;2022-10-31T06:45:47;11.50;99.90
7622;DHT22;3852;52.284;8.032;2022-10-31T06:48:13;11.50;99.90
7622;DHT22;3852;52.284;8.032;2022-10-31T06:50:38;11.50;99.90
7622;DHT22;3852;52.284;8.032;2022-10-31T06:53:04;11.40;99.90
7622;DHT22;3852;52.284;8.032;2022-10-31T06:55:30;11.50;99.90
7622;DHT22;3852;52.284;8.032;2022-10-31T06:57:58;11.50;99.90
7622;DHT22;3852;52.284;8.032;2022-10-31T07:00:26;11.60;99.90
7622;DHT22;3852;52.284;8.032;2022-10-31T07:02:57;11.60;99.90
7622;DHT22;3852;52.284;8.032;2022-10-31T07:05:23;11.70;99.90
7622;DHT22;3852;52.284;8.032;2022-10-31T07:08:10;11.70;99.90
7622;DHT22;3852;52.284;8.032;2022-10-31T07:10:38;12.00;99.90
7622;DHT22;3852;52.284;8.032;2022-10-31T07:13:08;12.30;99.90
7622;DHT22;3852;52.284;8.032;2022-10-31T07:15:37;12.50;99.90
7622;DHT22;3852;52.284;8.032;2022-10-31T07:18:05;12.40;99.90
7622;DHT22;3852;52.284;8.032;2022-10-31T07:20:32;12.20;99.90
7622;DHT22;3852;52.284;8.032;2022-10-31T07:22:58;12.20;99.90
7622;DHT22;3852;52.284;8.032;2022-10-31T07:25:25;12.40;99.90
7622;DHT22;3852;52.284;8.032;2022-10-31T07:27:52;12.40;99.90
7622;DHT22;3852;52.284;8.032;2022-10-31T07:30:18;12.50;99.90
7622;DHT22;3852;52.284;8.032;2022-10-31T07:32:46;12.70;99.90
7622;DHT22;3852;52.284;8.032;2022-10-31T07:35:18;12.60;99.90
7622;DHT22;3852;52.284;8.032;2022-10-31T07:37:48;12.50;99.90
7622;DHT22;3852;52.284;8.032;2022-10-31T07:40:16;12.50;99.90
7622;DHT22;3852;52.284;8.032;2022-10-31T07:42:45;12.50;99.90
7622;DHT22;3852;52.284;8.032;2022-10-31T07:45:17;12.70;99.90
7622;DHT22;3852;52.284;8.032;2022-10-31T07:47:52;12.80;99.90
7622;DHT22;3852;52.284;8.032;2022-10-31T07:50:20;12.90;99.90
7622;DHT22;3852;52.284;8.032;2022-10-31T07:52:48;12.90;99.90
7622;DHT22;3852;52.284;8.032;2022-10-31T07:55:14;13.00;99.90
7622;DHT22;3852;52.284;8.032;2022-10-31T07:57:40;13.00;99.90
7622;DHT22;3852;52.284;8.032;2022-10-31T08:00:10;13.00;99.90
7622;DHT22;3852;52.284;8.032;2022-10-31T08:02:36;13.30;99.90
7622;DHT22;3852;52.284;8.032;2022-10-31T08:05:02;13.00;99.90
7622;DHT22;3852;52.284;8.032;2022-10-31T08:07:28;12.80;99.90
7622;DHT22;3852;52.284;8.032;2022-10-31T08:09:56;12.70;99.90
7622;DHT22;3852;52.284;8.032;2022-10-31T08:12:22;12.60;99.90
7622;DHT22;3852;52.284;8.032;2022-10-31T08:14:48;13.00;99.90
7622;DHT22;3852;52.284;8.032;2022-10-31T08:17:15;12.80;99.90
7622;DHT22;3852;52.284;8.032;2022-10-31T08:19:41;12.60;99.90
7622;DHT22;3852;52.284;8.032;2022-10-31T08:22:06;12.50;99.90
7622;DHT22;3852;52.284;8.032;2022-10-31T08:24:32;12.90;99.90
7622;DHT22;3852;52.284;8.032;2022-10-31T08:26:58;13.20;99.90
7622;DHT22;3852;52.284;8.032;2022-10-31T08:29:23;13.30;99.90
7622;DHT22;3852;52.284;8.032;2022-10-31T08:31:49;13.30;99.90
7622;DHT22;3852;52.284;8.032;2022-10-31T08:34:15;13.30;99.90
7622;DHT22;3852;52.284;8.032;2022-10-31T08:36:41;13.30;99.90
7622;DHT22;3852;52.284;8.032;2022-10-31T08:39:10;13.50;99.90
7622;DHT22;3852;52.284;8.032;2022-10-31T08:41:36;13.70;99.90
7622;DHT22;3852;52.284;8.032;2022-10-31T08:44:01;13.80;99.90
7622;DHT22;3852;52.284;8.032;2022-10-31T08:46:27;13.50;99.90
7622;DHT22;3852;52.284;8.032;2022-10-31T08:48:53;13.40;99.90
7622;DHT22;3852;52.284;8.032;2022-10-31T08:51:19;13.40;99.90
7622;DHT22;3852;52.284;8.032;2022-10-31T08:53:45;13.40;99.90
7622;DHT22;3852;52.284;8.032;2022-10-31T08:56:10;13.40;99.90
7622;DHT22;3852;52.284;8.032;2022-10-31T08:58:36;13.70;99.90
7622;DHT22;3852;52.284;8.032;2022-10-31T09:01:02;13.70;99.90
7622;DHT22;3852;52.284;8.032;2022-10-31T09:03:30;13.90;99.90
7622;DHT22;3852;52.284;8.032;2022-10-31T09:06:01;14.00;99.90
7622;DHT22;3852;52.284;8.032;2022-10-31T09:08:32;14.20;99.90
7622;DHT22;3852;52.284;8.032;2022-10-31T09:10:59;14.20;99.90
7622;DHT22;3852;52.284;8.032;2022-10-31T09:13:24;14.30;99.90
7622;DHT22;3852;52.284;8.032;2022-10-31T09:15:53;14.20;99.90
7622;DHT22;3852;52.284;8.032;2022-10-31T09:18:21;14.10;99.90
7622;DHT22;3852;52.284;8.032;2022-10-31T09:20:49;14.10;99.90
7622;DHT22;3852;52.284;8.032;2022-10-31T09:23:20;14.10;99.90
7622;DHT22;3852;52.284;8.032;2022-10-31T09:25:48;14.20;99.90
7622;DHT22;3852;52.284;8.032;2022-10-31T09:28:17;14.20;99.90
7622;DHT22;3852;52.284;8.032;2022-10-31T09:30:46;14.40;99.90
7622;DHT22;3852;52.284;8.032;2022-10-31T09:33:14;14.60;99.90
7622;DHT22;3852;52.284;8.032;2022-10-31T09:35:40;14.50;99.90
7622;DHT22;3852;52.284;8.032;2022-10-31T09:41:13;14.70;99.90
7622;DHT22;3852;52.284;8.032;2022-10-31T09:49:32;15.10;99.90
7622;DHT22;3852;52.284;8.032;2022-10-31T09:54:56;15.10;99.90
7622;DHT22;3852;52.284;8.032;2022-10-31T09:57:31;15.30;99.90
7622;DHT22;3852;52.284;8.032;2022-10-31T09:59:59;15.40;99.90
7622;DHT22;3852;52.284;8.032;2022-10-31T10:02:44;15.60;99.90
7622;DHT22;3852;52.284;8.032;2022-10-31T10:05:17;15.70;99.90
7622;DHT22;3852;52.284;8.032;2022-10-31T10:08:07;15.70;99.90
7622;DHT22;3852;52.284;8.032;2022-10-31T10:16:32;16.10;99.90
7622;DHT22;3852;52.284;8.032;2022-10-31T10:24:59;16.30;99.90
7622;DHT22;3852;52.284;8.032;2022-10-31T10:30:48;16.40;99.90
7622;DHT22;3852;52.284;8.032;2022-10-31T10:33:24;16.50;99.90
7622;DHT22;3852;52.284;8.032;2022-10-31T10:36:00;16.60;99.90
7622;DHT22;3852;52.284;8.032;2022-10-31T10:41:19;16.70;99.90
7622;DHT22;3852;52.284;8.032;2022-10-31T10:43:49;16.70;99.90
7622;DHT22;3852;52.284;8.032;2022-10-31T10:49:50;16.90;99.90
7622;DHT22;3852;52.284;8.032;2022-10-31T10:58:01;17.10;99.90
7622;DHT22;3852;52.284;8.032;2022-10-31T11:00:39;17.10;99.90
7622;DHT22;3852;52.284;8.032;2022-10-31T11:03:05;17.20;99.90
7622;DHT22;3852;52.284;8.032;2022-10-31T11:08:26;17.20;99.90
7622;DHT22;3852;52.284;8.032;2022-10-31T11:11:10;17.20;99.90
7622;DHT22;3852;52.284;8.032;2022-10-31T11:13:47;17.20;99.90
7622;DHT22;3852;52.284;8.032;2022-10-31T11:18:54;17.20;99.90
7622;DHT22;3852;52.284;8.032;2022-10-31T11:21:32;17.20;99.90
7622;DHT22;3852;52.284;8.032;2022-10-31T11:26:40;17.40;99.90
7622;DHT22;3852;52.284;8.032;2022-10-31T11:29:24;17.30;99.90
7622;DHT22;3852;52.284;8.032;2022-10-31T11:31:55;17.40;99.90
7622;DHT22;3852;52.284;8.032;2022-10-31T11:34:38;17.40;99.90
7622;DHT22;3852;52.284;8.032;2022-10-31T11:37:18;17.40;99.90
7622;DHT22;3852;52.284;8.032;2022-10-31T11:39:57;17.30;99.90
7622;DHT22;3852;52.284;8.032;2022-10-31T11:42:30;17.30;99.90
7622;DHT22;3852;52.284;8.032;2022-10-31T11:45:05;17.30;99.90
7622;DHT22;3852;52.284;8.032;2022-10-31T11:47:33;17.30;99.90
7622;DHT22;3852;52.284;8.032;2022-10-31T11:50:02;17.30;99.90
7622;DHT22;3852;52.284;8.032;2022-10-31T11:52:40;17.30;99.90
7622;DHT22;3852;52.284;8.032;2022-10-31T12:00:38;17.50;99.90
7622;DHT22;3852;52.284;8.032;2022-10-31T12:06:03;17.40;99.90
7622;DHT22;3852;52.284;8.032;2022-10-31T12:08:37;17.40;99.90
7622;DHT22;3852;52.284;8.032;2022-10-31T12:11:36;17.40;99.90
7622;DHT22;3852;52.284;8.032;2022-10-31T12:19:49;17.70;99.90
7622;DHT22;3852;52.284;8.032;2022-10-31T12:23:11;17.70;99.90
7622;DHT22;3852;52.284;8.032;2022-10-31T12:37:40;17.70;99.90
7622;DHT22;3852;52.284;8.032;2022-10-31T12:43:45;17.80;99.90
7622;DHT22;3852;52.284;8.032;2022-10-31T12:46:25;17.80;99.90
7622;DHT22;3852;52.284;8.032;2022-10-31T12:49:48;17.70;99.90
7622;DHT22;3852;52.284;8.032;2022-10-31T12:52:31;17.50;99.90
7622;DHT22;3852;52.284;8.032;2022-10-31T12:58:34;17.50;99.90
7622;DHT22;3852;52.284;8.032;2022-10-31T13:01:15;17.30;99.90
7622;DHT22;3852;52.284;8.032;2022-10-31T13:04:21;17.30;99.90
7622;DHT22;3852;52.284;8.032;2022-10-31T13:07:00;17.30;99.90
7622;DHT22;3852;52.284;8.032;2022-10-31T13:09:38;17.30;99.90
7622;DHT22;3852;52.284;8.032;2022-10-31T13:12:13;17.30;99.90
7622;DHT22;3852;52.284;8.032;2022-10-31T13:14:55;17.30;99.90
7622;DHT22;3852;52.284;8.032;2022-10-31T13:17:45;17.30;99.90
7622;DHT22;3852;52.284;8.032;2022-10-31T13:20:43;17.30;99.90
7622;DHT22;3852;52.284;8.032;2022-10-31T13:23:27;17.30;99.90
7622;DHT22;3852;52.284;8.032;2022-10-31T13:25:56;17.30;99.90
7622;DHT22;3852;52.284;8.032;2022-10-31T13:28:37;17.40;99.90
7622;DHT22;3852;52.284;8.032;2022-10-31T13:31:09;17.50;99.90
7622;DHT22;3852;52.284;8.032;2022-10-31T13:33:47;17.50;99.90
7622;DHT22;3852;52.284;8.032;2022-10-31T13:36:45;17.50;99.90
7622;DHT22;3852;52.284;8.032;2022-10-31T13:42:54;17.40;99.90
7622;DHT22;3852;52.284;8.032;2022-10-31T13:45:24;17.40;99.90
7622;DHT22;3852;52.284;8.032;2022-10-31T13:50:43;17.30;99.90
7622;DHT22;3852;52.284;8.032;2022-10-31T13:53:21;17.30;99.90
7622;DHT22;3852;52.284;8.032;2022-10-31T13:56:14;17.20;99.90
7622;DHT22;3852;52.284;8.032;2022-10-31T13:59:16;17.20;99.90
7622;DHT22;3852;52.284;8.032;2022-10-31T14:01:57;17.20;99.90
7622;DHT22;3852;52.284;8.032;2022-10-31T14:04:44;17.20;99.90
7622;DHT22;3852;52.284;8.032;2022-10-31T14:07:14;17.20;99.90
7622;DHT22;3852;52.284;8.032;2022-10-31T14:10:05;17.10;99.90
7622;DHT22;3852;52.284;8.032;2022-10-31T14:12:43;17.20;99.90
7622;DHT22;3852;52.284;8.032;2022-10-31T14:15:24;17.10;99.90
7622;DHT22;3852;52.284;8.032;2022-10-31T14:20:44;17.10;99.90
7622;DHT22;3852;52.284;8.032;2022-10-31T14:28:35;17.10;99.90
7622;DHT22;3852;52.284;8.032;2022-10-31T14:31:01;17.10;99.90
7622;DHT22;3852;52.284;8.032;2022-10-31T14:33:29;17.10;99.90
7622;DHT22;3852;52.284;8.032;2022-10-31T14:36:11;17.00;99.90
7622;DHT22;3852;52.284;8.032;2022-10-31T14:42:14;17.20;99.90
7622;DHT22;3852;52.284;8.032;2022-10-31T14:45:00;17.20;99.90
7622;DHT22;3852;52.284;8.032;2022-10-31T14:50:49;17.10;99.90
7622;DHT22;3852;52.284;8.032;2022-10-31T14:53:22;17.10;99.90
7622;DHT22;3852;52.284;8.032;2022-10-31T14:55:55;17.10;99.90
7622;DHT22;3852;52.284;8.032;2022-10-31T14:58:37;17.00;99.90
7622;DHT22;3852;52.284;8.032;2022-10-31T15:01:05;17.00;99.90
7622;DHT22;3852;52.284;8.032;2022-10-31T15:03:34;17.10;99.90
7622;DHT22;3852;52.284;8.032;2022-10-31T15:06:11;17.10;99.90
7622;DHT22;3852;52.284;8.032;2022-10-31T15:08:44;17.10;99.90
7622;DHT22;3852;52.284;8.032;2022-10-31T15:13:49;17.00;99.90
7622;DHT22;3852;52.284;8.032;2022-10-31T15:16:25;17.10;99.90
7622;DHT22;3852;52.284;8.032;2022-10-31T15:18:56;17.10;99.90
7622;DHT22;3852;52.284;8.032;2022-10-31T15:21:25;17.10;99.90
7622;DHT22;3852;52.284;8.032;2022-10-31T15:23:55;17.10;99.90
7622;DHT22;3852;52.284;8.032;2022-10-31T15:26:26;17.10;99.90
7622;DHT22;3852;52.284;8.032;2022-10-31T15:29:05;17.10;99.90
7622;DHT22;3852;52.284;8.032;2022-10-31T15:31:36;17.00;99.90
7622;DHT22;3852;52.284;8.032;2022-10-31T15:34:20;17.00;99.90
7622;DHT22;3852;52.284;8.032;2022-10-31T15:36:52;17.00;99.90
7622;DHT22;3852;52.284;8.032;2022-10-31T15:39:18;16.90;99.90
7622;DHT22;3852;52.284;8.032;2022-10-31T15:41:47;16.90;99.90
7622;DHT22;3852;52.284;8.032;2022-10-31T15:44:32;16.90;99.90
7622;DHT22;3852;52.284;8.032;2022-10-31T15:47:05;16.90;99.90
7622;DHT22;3852;52.284;8.032;2022-10-31T15:49:40;16.80;99.90
7622;DHT22;3852;52.284;8.032;2022-10-31T15:52:13;16.80;99.90
7622;DHT22;3852;52.284;8.032;2022-10-31T15:54:51;16.80;99.90
7622;DHT22;3852;52.284;8.032;2022-10-31T15:57:19;16.80;99.90
7622;DHT22;3852;52.284;8.032;2022-10-31T15:59:47;16.90;99.90
7622;DHT22;3852;52.284;8.032;2022-10-31T16:02:19;16.80;99.90
7622;DHT22;3852;52.284;8.032;2022-10-31T16:07:24;16.80;99.90
7622;DHT22;3852;52.284;8.032;2022-10-31T16:12:44;16.70;99.90
7622;DHT22;3852;52.284;8.032;2022-10-31T16:15:15;16.70;99.90
7622;DHT22;3852;52.284;8.032;2022-10-31T16:17:44;16.70;99.90
7622;DHT22;3852;52.284;8.032;2022-10-31T16:20:25;16.70;99.90
7622;DHT22;3852;52.284;8.032;2022-10-31T16:22:55;16.60;99.90
7622;DHT22;3852;52.284;8.032;2022-10-31T16:25:36;16.60;99.90
7622;DHT22;3852;52.284;8.032;2022-10-31T16:28:17;16.50;99.90
7622;DHT22;3852;52.284;8.032;2022-10-31T16:30:46;16.40;99.90
7622;DHT22;3852;52.284;8.032;2022-10-31T16:33:27;16.40;99.90
7622;DHT22;3852;52.284;8.032;2022-10-31T16:35:57;16.40;99.90
7622;DHT22;3852;52.284;8.032;2022-10-31T16:38:23;16.40;99.90
7622;DHT22;3852;52.284;8.032;2022-10-31T16:40:50;16.40;99.90
7622;DHT22;3852;52.284;8.032;2022-10-31T16:43:17;16.40;99.90
7622;DHT22;3852;52.284;8.032;2022-10-31T16:45:50;16.40;99.90
7622;DHT22;3852;52.284;8.032;2022-10-31T16:48:19;16.40;99.90
7622;DHT22;3852;52.284;8.032;2022-10-31T16:50:47;16.60;99.90
7622;DHT22;3852;52.284;8.032;2022-10-31T16:53:15;16.60;99.90
7622;DHT22;3852;52.284;8.032;2022-10-31T16:55:48;16.60;99.90
7622;DHT22;3852;52.284;8.032;2022-10-31T16:58:24;16.40;99.90
7622;DHT22;3852;52.284;8.032;2022-10-31T17:00:51;16.40;99.90
7622;DHT22;3852;52.284;8.032;2022-10-31T17:03:18;16.40;99.90
7622;DHT22;3852;52.284;8.032;2022-10-31T17:05:44;16.40;99.90
7622;DHT22;3852;52.284;8.032;2022-10-31T17:08:10;16.40;99.90
7622;DHT22;3852;52.284;8.032;2022-10-31T17:10:37;16.30;99.90
7622;DHT22;3852;52.284;8.032;2022-10-31T17:13:05;16.30;99.90
7622;DHT22;3852;52.284;8.032;2022-10-31T17:15:37;16.20;99.90
7622;DHT22;3852;52.284;8.032;2022-10-31T17:18:14;16.20;99.90
7622;DHT22;3852;52.284;8.032;2022-10-31T17:20:41;16.20;99.90
7622;DHT22;3852;52.284;8.032;2022-10-31T17:23:12;16.20;99.90
7622;DHT22;3852;52.284;8.032;2022-10-31T17:25:39;16.10;99.90
7622;DHT22;3852;52.284;8.032;2022-10-31T17:28:06;16.10;99.90
7622;DHT22;3852;52.284;8.032;2022-10-31T17:30:39;16.10;99.90
7622;DHT22;3852;52.284;8.032;2022-10-31T17:33:05;16.00;99.90
7622;DHT22;3852;52.284;8.032;2022-10-31T17:35:31;16.00;99.90
7622;DHT22;3852;52.284;8.032;2022-10-31T17:37:57;16.00;99.90
7622;DHT22;3852;52.284;8.032;2022-10-31T17:40:22;16.10;99.90
7622;DHT22;3852;52.284;8.032;2022-10-31T17:42:54;16.10;99.90
7622;DHT22;3852;52.284;8.032;2022-10-31T17:45:23;16.10;99.90
7622;DHT22;3852;52.284;8.032;2022-10-31T17:47:51;16.20;99.90
7622;DHT22;3852;52.284;8.032;2022-10-31T17:50:20;16.10;99.90
7622;DHT22;3852;52.284;8.032;2022-10-31T17:52:47;16.20;99.90
7622;DHT22;3852;52.284;8.032;2022-10-31T17:55:13;16.20;99.90
7622;DHT22;3852;52.284;8.032;2022-10-31T17:57:39;16.10;99.90
7622;DHT22;3852;52.284;8.032;2022-10-31T18:00:07;16.10;99.90
7622;DHT22;3852;52.284;8.032;2022-10-31T18:02:35;16.10;99.90
7622;DHT22;3852;52.284;8.032;2022-10-31T18:05:04;16.10;99.90
7622;DHT22;3852;52.284;8.032;2022-10-31T18:07:31;16.00;99.90
7622;DHT22;3852;52.284;8.032;2022-10-31T18:09:58;16.00;99.90
7622;DHT22;3852;52.284;8.032;2022-10-31T18:12:25;16.00;99.90
7622;DHT22;3852;52.284;8.032;2022-10-31T18:14:52;16.00;99.90
7622;DHT22;3852;52.284;8.032;2022-10-31T18:17:18;16.00;99.90
7622;DHT22;3852;52.284;8.032;2022-10-31T18:19:44;15.90;99.90
7622;DHT22;3852;52.284;8.032;2022-10-31T18:22:10;15.90;99.90
7622;DHT22;3852;52.284;8.032;2022-10-31T18:24:37;15.80;99.90
7622;DHT22;3852;52.284;8.032;2022-10-31T18:27:03;15.80;99.90
7622;DHT22;3852;52.284;8.032;2022-10-31T18:29:29;15.90;99.90
7622;DHT22;3852;52.284;8.032;2022-10-31T18:31:55;15.90;99.90
7622;DHT22;3852;52.284;8.032;2022-10-31T18:34:23;15.90;99.90
7622;DHT22;3852;52.284;8.032;2022-10-31T18:36:50;15.90;99.90
7622;DHT22;3852;52.284;8.032;2022-10-31T18:39:16;15.80;99.90
7622;DHT22;3852;52.284;8.032;2022-10-31T18:41:43;15.80;99.90